Melrose, Massachusetts
Current Conditions -  °F | °C
As of 4:54 PM on Thursday 27 Nov 2014 (Local Time) from KBOS Reporting Station
Overcast Overcast  
Wind Chill: 30°   Ceiling: 1800
Heat Index: 36°   Visibility: 10mi
Dew Point: 29°   Wind: 8mph
Humidity: 76%   Direction: 350°N
Pressure: 29.98"   Gusts: NA
Location:  42.46°N, 71.06°W
Report Text: KBOS 272154Z 35007KT 10SM BKN018 OVC045 02/M02 A2998 RMK AO2 SLP151 T00221017
Loading
Personal Weather Stations






























Interactive Weather Map New forecast layout! Learn more

10-Day Weather Forecast

Advertisements
Track Severe Weather on mobile